Time;durP1;ratioP1;P1;durP2;ratioP2;P2;SDS_P1;SDS_P2;PMS_P1;PMS_P2;Temp;Humidity;BMP_temperature;BMP_pressure;BME280_temperature;BME280_humidity;BME280_pressure;Samples;Min_cycle;Max_cycle;Signal;HPM_P1;HPM_P2
2021/03/03 00:00:15;;;;;;;86.78;42.03;;;;;;;;;;5079381;28;20025;-63
2021/03/03 00:02:41;;;;;;;90.38;44.85;;;;;;;;;;5079581;28;20016;-63
2021/03/03 00:05:07;;;;;;;92.85;44.38;;;;;;;;;;5079549;28;20111;-63
2021/03/03 00:07:34;;;;;;;98.18;46.05;;;;;;;;;;5079458;28;20020;-63
2021/03/03 00:10:00;;;;;;;98.32;47.10;;;;;;;;;;5079405;28;20056;-63
2021/03/03 00:12:25;;;;;;;91.00;43.97;;;;;;;;;;5079307;28;20036;-63
2021/03/03 00:14:51;;;;;;;93.22;46.17;;;;;;;;;;5079381;28;20107;-63
2021/03/03 00:17:16;;;;;;;89.68;45.65;;;;;;;;;;5061596;28;20122;-63
2021/03/03 00:19:42;;;;;;;85.55;44.08;;;;;;;;;;5085752;28;20055;-63
2021/03/03 00:22:07;;;;;;;95.85;46.25;;;;;;;;;;5099834;28;20037;-63
2021/03/03 00:24:33;;;;;;;85.28;43.38;;;;;;;;;;5099893;28;20479;-63
2021/03/03 00:27:00;;;;;;;87.13;43.88;;;;;;;;;;5099484;28;20016;-63
2021/03/03 00:29:26;;;;;;;93.90;45.80;;;;;;;;;;5099676;28;20028;-63
2021/03/03 00:31:52;;;;;;;88.03;45.00;;;;;;;;;;5099573;28;20372;-63
2021/03/03 00:34:17;;;;;;;89.68;45.17;;;;;;;;;;5099690;28;20039;-63
2021/03/03 00:36:49;;;;;;;97.25;46.13;;;;;;;;;;5099589;28;20042;-63
2021/03/03 00:39:14;;;;;;;100.65;48.42;;;;;;;;;;5096218;28;20147;-63
2021/03/03 00:41:40;;;;;;;96.82;47.20;;;;;;;;;;5096289;28;20020;-63
2021/03/03 00:44:06;;;;;;;95.20;47.38;;;;;;;;;;5094859;28;20031;-64
2021/03/03 00:46:31;;;;;;;97.22;47.58;;;;;;;;;;5096146;28;20061;-64
2021/03/03 00:48:57;;;;;;;97.93;47.90;;;;;;;;;;5096515;28;20081;-64
2021/03/03 00:51:23;;;;;;;94.00;45.60;;;;;;;;;;5094679;28;20022;-64
2021/03/03 00:54:00;;;;;;;93.15;46.58;;;;;;;;;;5094480;28;20028;-63
2021/03/03 00:56:31;;;;;;;91.10;46.17;;;;;;;;;;5094932;28;20825;-62
2021/03/03 00:59:04;;;;;;;;;;;;;;;;;;5094983;28;20085;-63
2021/03/03 01:01:31;;;;;;;89.28;45.72;;;;;;;;;;5094798;28;19907;-63
2021/03/03 01:03:57;;;;;;;89.75;46.05;;;;;;;;;;5094464;28;20070;-63
2021/03/03 01:06:27;;;;;;;;;;;;;;;;;;5096426;28;20024;-62
2021/03/03 01:08:53;;;;;;;92.65;45.45;;;;;;;;;;5094461;28;19908;-62
2021/03/03 01:11:19;;;;;;;90.18;45.60;;;;;;;;;;5094417;28;20032;-63
2021/03/03 01:13:47;;;;;;;90.90;44.72;;;;;;;;;;5094335;28;20028;-63
2021/03/03 01:16:18;;;;;;;98.10;48.05;;;;;;;;;;5094635;28;20055;-63
2021/03/03 01:18:49;;;;;;;96.70;46.70;;;;;;;;;;5093983;28;20035;-63
2021/03/03 01:21:15;;;;;;;105.47;50.25;;;;;;;;;;5095920;28;20040;-63
2021/03/03 01:23:41;;;;;;;100.57;50.42;;;;;;;;;;5095783;28;20123;-63
2021/03/03 01:26:07;;;;;;;98.10;48.50;;;;;;;;;;5095586;28;20016;-63
2021/03/03 01:28:33;;;;;;;92.50;47.15;;;;;;;;;;5095657;28;20031;-63
2021/03/03 01:30:58;;;;;;;99.55;47.97;;;;;;;;;;5094202;28;20031;-63
2021/03/03 01:33:26;;;;;;;97.82;48.13;;;;;;;;;;5095544;28;20487;-63
2021/03/03 01:35:51;;;;;;;94.78;46.28;;;;;;;;;;5100489;28;20066;-63
2021/03/03 01:38:17;;;;;;;99.57;48.72;;;;;;;;;;5112566;28;20043;-63
2021/03/03 01:40:43;;;;;;;91.43;46.90;;;;;;;;;;5115892;28;20367;-63
2021/03/03 01:43:08;;;;;;;92.97;46.92;;;;;;;;;;5114499;28;20114;-63
2021/03/03 01:45:34;;;;;;;91.60;46.72;;;;;;;;;;5115329;28;20080;-63
2021/03/03 01:48:06;;;;;;;92.45;46.45;;;;;;;;;;5115369;28;20069;-63
2021/03/03 01:50:38;;;;;;;91.28;45.47;;;;;;;;;;5114923;28;20050;-62
2021/03/03 01:53:04;;;;;;;89.60;44.60;;;;;;;;;;5115250;28;20092;-62
2021/03/03 01:55:29;;;;;;;92.65;45.65;;;;;;;;;;5115488;28;20015;-63
2021/03/03 01:57:56;;;;;;;98.50;48.40;;;;;;;;;;5115213;28;20160;-63
2021/03/03 02:00:22;;;;;;;94.45;47.05;;;;;;;;;;5114015;28;20106;-63
2021/03/03 02:02:47;;;;;;;94.75;47.08;;;;;;;;;;5115176;28;20544;-63
2021/03/03 02:05:13;;;;;;;87.38;45.95;;;;;;;;;;5114947;28;20046;-63
2021/03/03 02:07:52;;;;;;;97.25;46.20;;;;;;;;;;5114404;28;20035;-63
2021/03/03 02:10:27;;;;;;;94.28;47.15;;;;;;;;;;5115245;28;20035;-63
2021/03/03 02:12:58;;;;;;;90.35;45.33;;;;;;;;;;5114726;28;20176;-63
2021/03/03 02:15:24;;;;;;;95.05;45.63;;;;;;;;;;5113800;28;20019;-63
2021/03/03 02:17:50;;;;;;;91.85;45.78;;;;;;;;;;5115053;28;20475;-63
2021/03/03 02:20:16;;;;;;;93.35;46.58;;;;;;;;;;5114259;28;20097;-63
2021/03/03 02:22:41;;;;;;;98.53;46.72;;;;;;;;;;5114775;28;20020;-63
2021/03/03 02:25:31;;;;;;;93.65;45.15;;;;;;;;;;5114583;28;20027;-63
2021/03/03 02:27:59;;;;;;;98.03;45.45;;;;;;;;;;5114636;28;20046;-63
2021/03/03 02:30:25;;;;;;;96.80;45.97;;;;;;;;;;5114154;28;20472;-63
2021/03/03 02:32:51;;;;;;;89.50;44.28;;;;;;;;;;5113292;28;20482;-63
2021/03/03 02:35:17;;;;;;;95.95;46.97;;;;;;;;;;5114660;28;20106;-63
2021/03/03 02:37:43;;;;;;;92.50;46.45;;;;;;;;;;5113202;28;20024;-63
2021/03/03 02:40:10;;;;;;;96.60;47.20;;;;;;;;;;5114300;28;20122;-63
2021/03/03 02:42:36;;;;;;;89.55;45.15;;;;;;;;;;5114233;28;20019;-63
2021/03/03 02:45:07;;;;;;;96.32;45.38;;;;;;;;;;5112932;28;20019;-63
2021/03/03 02:47:32;;;;;;;;;;;;;;;;;;5113467;28;20027;-63
2021/03/03 02:49:58;;;;;;;95.53;46.08;;;;;;;;;;5114160;28;19949;-63
2021/03/03 02:52:27;;;;;;;94.32;44.67;;;;;;;;;;5113932;28;20028;-63
2021/03/03 02:54:52;;;;;;;93.28;45.38;;;;;;;;;;5114118;28;20011;-63
2021/03/03 02:57:18;;;;;;;88.22;44.47;;;;;;;;;;5113827;28;20373;-63
2021/03/03 02:59:49;;;;;;;93.28;45.72;;;;;;;;;;5113687;28;20015;-64
2021/03/03 03:02:15;;;;;;;98.93;44.97;;;;;;;;;;5112673;28;20031;-64
2021/03/03 03:04:44;;;;;;;89.85;44.55;;;;;;;;;;5112654;28;20024;-64
2021/03/03 03:07:11;;;;;;;91.32;44.08;;;;;;;;;;5113580;28;20028;-63
2021/03/03 03:09:38;;;;;;;90.82;44.50;;;;;;;;;;5113957;28;20081;-63
2021/03/03 03:12:04;;;;;;;94.13;45.38;;;;;;;;;;5114096;28;20084;-63
2021/03/03 03:14:30;;;;;;;94.65;45.38;;;;;;;;;;5113879;28;20015;-63
2021/03/03 03:16:56;;;;;;;90.20;45.15;;;;;;;;;;5113947;28;20038;-63
2021/03/03 03:19:27;;;;;;;95.93;46.53;;;;;;;;;;5113516;28;20564;-63
2021/03/03 03:21:54;;;;;;;90.68;45.00;;;;;;;;;;5113208;28;20078;-63
2021/03/03 03:24:20;;;;;;;100.47;47.05;;;;;;;;;;5112515;28;20020;-63
2021/03/03 03:26:49;;;;;;;92.07;45.40;;;;;;;;;;5112604;28;20023;-62
2021/03/03 03:29:16;;;;;;;92.55;44.97;;;;;;;;;;5113907;28;20111;-63
2021/03/03 03:31:43;;;;;;;93.35;45.53;;;;;;;;;;5112572;28;20147;-63
2021/03/03 03:34:10;;;;;;;97.45;44.40;;;;;;;;;;5113462;28;20103;-62
2021/03/03 03:36:36;;;;;;;93.43;45.17;;;;;;;;;;5112624;28;20079;-63
2021/03/03 03:39:07;;;;;;;90.70;44.15;;;;;;;;;;5112756;28;20011;-63
2021/03/03 03:41:33;;;;;;;92.15;43.05;;;;;;;;;;5113995;28;20024;-63
2021/03/03 03:43:59;;;;;;;91.68;43.08;;;;;;;;;;5114078;28;20016;-63
2021/03/03 03:46:25;;;;;;;95.53;43.72;;;;;;;;;;5113695;28;20032;-63
2021/03/03 03:48:50;;;;;;;94.05;44.38;;;;;;;;;;5112475;28;20034;-63
2021/03/03 03:51:16;;;;;;;97.35;45.40;;;;;;;;;;5112525;28;20032;-63
2021/03/03 03:53:42;;;;;;;90.90;45.33;;;;;;;;;;5113725;28;20026;-63
2021/03/03 03:56:08;;;;;;;94.78;45.75;;;;;;;;;;5113648;28;20484;-63
2021/03/03 03:58:34;;;;;;;97.97;44.38;;;;;;;;;;5111996;28;20379;-63
2021/03/03 04:01:00;;;;;;;91.65;44.05;;;;;;;;;;5113816;28;20027;-63
2021/03/03 04:03:25;;;;;;;95.07;45.17;;;;;;;;;;5113630;28;20486;-63
2021/03/03 04:05:51;;;;;;;98.97;47.17;;;;;;;;;;5113530;28;20437;-63
2021/03/03 04:08:17;;;;;;;100.40;45.63;;;;;;;;;;5113407;28;20026;-63
2021/03/03 04:10:42;;;;;;;107.20;46.40;;;;;;;;;;5113410;28;20028;-63
2021/03/03 04:13:09;;;;;;;96.25;44.63;;;;;;;;;;5115479;28;20535;-63
2021/03/03 04:15:34;;;;;;;103.18;44.75;;;;;;;;;;5117196;28;20487;-63
2021/03/03 04:18:03;;;;;;;97.22;45.22;;;;;;;;;;5117244;28;20023;-63
2021/03/03 04:20:28;;;;;;;96.05;44.17;;;;;;;;;;5117014;28;20040;-63
2021/03/03 04:22:54;;;;;;;112.68;48.28;;;;;;;;;;5117118;28;20357;-63
2021/03/03 04:25:20;;;;;;;130.43;52.92;;;;;;;;;;5116869;28;20023;-63
2021/03/03 04:27:50;;;;;;;126.43;51.65;;;;;;;;;;5116099;28;20061;-63
2021/03/03 04:32:45;;;;;;;115.32;49.72;;;;;;;;;;5117035;28;19903;-63
2021/03/03 04:35:11;;;;;;;107.68;47.85;;;;;;;;;;5117237;28;20030;-63
2021/03/03 04:37:37;;;;;;;99.22;45.25;;;;;;;;;;5117315;27;20072;-63
2021/03/03 04:40:04;;;;;;;100.63;46.60;;;;;;;;;;5116753;28;20460;-63
2021/03/03 04:42:29;;;;;;;105.97;49.60;;;;;;;;;;5115223;28;20403;-63
2021/03/03 04:44:55;;;;;;;111.78;50.80;;;;;;;;;;5116843;28;20031;-63
2021/03/03 04:47:21;;;;;;;111.53;51.25;;;;;;;;;;5116930;28;20440;-63
2021/03/03 04:49:46;;;;;;;110.50;51.22;;;;;;;;;;5116777;28;20024;-63
2021/03/03 04:52:12;;;;;;;118.30;52.83;;;;;;;;;;5116028;28;20024;-62
2021/03/03 04:54:37;;;;;;;106.68;47.83;;;;;;;;;;5116529;27;20040;-62
2021/03/03 04:57:03;;;;;;;93.20;43.53;;;;;;;;;;5116764;28;20019;-59
2021/03/03 04:59:32;;;;;;;99.80;46.88;;;;;;;;;;5116401;28;20028;-62
2021/03/03 05:01:57;;;;;;;97.90;47.53;;;;;;;;;;5116738;28;20019;-61
2021/03/03 05:04:24;;;;;;;98.82;46.67;;;;;;;;;;5116279;28;20031;-61
2021/03/03 05:06:49;;;;;;;100.57;45.00;;;;;;;;;;5116244;28;20020;-61
2021/03/03 05:09:15;;;;;;;93.68;42.30;;;;;;;;;;5116403;28;20084;-61
2021/03/03 05:11:42;;;;;;;96.97;45.25;;;;;;;;;;5116192;28;20175;-61
2021/03/03 05:14:07;;;;;;;89.65;41.78;;;;;;;;;;5116349;28;20039;-61
2021/03/03 05:16:34;;;;;;;89.57;42.15;;;;;;;;;;5116350;28;20371;-61
2021/03/03 05:19:00;;;;;;;82.82;41.40;;;;;;;;;;5115623;28;20032;-61
2021/03/03 05:21:25;;;;;;;93.10;43.30;;;;;;;;;;5116110;28;20028;-61
2021/03/03 05:23:51;;;;;;;86.10;42.33;;;;;;;;;;5114960;28;20016;-61
2021/03/03 05:26:16;;;;;;;94.53;43.45;;;;;;;;;;5114780;28;20448;-61
2021/03/03 05:28:43;;;;;;;88.88;43.97;;;;;;;;;;5115807;28;20035;-61
2021/03/03 05:31:09;;;;;;;98.25;44.50;;;;;;;;;;5114493;28;20023;-61
2021/03/03 05:33:35;;;;;;;104.32;46.55;;;;;;;;;;5114427;28;20034;-61
2021/03/03 05:36:04;;;;;;;102.68;47.20;;;;;;;;;;5114614;28;20043;-62
2021/03/03 05:38:33;;;;;;;106.97;52.53;;;;;;;;;;5115549;28;20050;-62
2021/03/03 05:40:59;;;;;;;108.85;51.90;;;;;;;;;;5115549;28;20034;-62
2021/03/03 05:43:25;;;;;;;105.03;53.17;;;;;;;;;;5115471;28;20475;-61
2021/03/03 05:45:50;;;;;;;109.57;52.92;;;;;;;;;;5115239;28;20015;-61
2021/03/03 05:48:22;;;;;;;102.00;52.88;;;;;;;;;;5115079;28;20111;-61
2021/03/03 05:50:51;;;;;;;105.18;51.70;;;;;;;;;;5115295;28;20043;-62
2021/03/03 05:53:17;;;;;;;105.93;54.45;;;;;;;;;;5115610;28;20080;-61
2021/03/03 05:55:43;;;;;;;116.47;54.40;;;;;;;;;;5115410;28;20548;-61
2021/03/03 05:58:09;;;;;;;114.88;52.88;;;;;;;;;;5115053;28;20367;-62
2021/03/03 06:00:34;;;;;;;141.52;55.65;;;;;;;;;;5113877;28;20046;-62
2021/03/03 06:03:01;;;;;;;125.82;54.20;;;;;;;;;;5115290;28;20463;-61
2021/03/03 06:05:27;;;;;;;133.15;56.72;;;;;;;;;;5115012;28;20016;-61
2021/03/03 06:07:53;;;;;;;135.63;59.13;;;;;;;;;;5115066;28;20376;-61
2021/03/03 06:10:18;;;;;;;132.50;58.53;;;;;;;;;;5114951;28;20030;-61
2021/03/03 06:12:44;;;;;;;123.90;59.28;;;;;;;;;;5115049;28;20015;-61
2021/03/03 06:15:09;;;;;;;125.20;60.58;;;;;;;;;;5114550;28;20118;-61
2021/03/03 06:17:35;;;;;;;131.40;63.05;;;;;;;;;;5114661;28;20486;-61
2021/03/03 06:20:02;;;;;;;131.55;67.72;;;;;;;;;;5113929;28;20044;-61
2021/03/03 06:22:28;;;;;;;125.95;67.53;;;;;;;;;;5114478;28;20070;-61
2021/03/03 06:24:56;;;;;;;172.10;71.78;;;;;;;;;;5114245;28;20043;-61
2021/03/03 06:27:23;;;;;;;152.95;69.05;;;;;;;;;;5114277;28;20411;-62
2021/03/03 06:30:03;;;;;;;140.25;68.28;;;;;;;;;;5114698;28;20024;-62
2021/03/03 06:32:29;;;;;;;147.95;68.35;;;;;;;;;;5114203;28;20114;-61
2021/03/03 06:34:54;;;;;;;138.80;68.22;;;;;;;;;;5112820;28;20444;-61
2021/03/03 06:37:20;;;;;;;144.20;70.30;;;;;;;;;;5114233;28;20483;-61
2021/03/03 06:40:04;;;;;;;135.70;69.72;;;;;;;;;;5113801;28;20020;-62
2021/03/03 06:42:29;;;;;;;140.77;71.43;;;;;;;;;;5114146;27;20028;-61
2021/03/03 06:44:56;;;;;;;138.43;73.35;;;;;;;;;;5114263;28;20375;-61
2021/03/03 06:47:23;;;;;;;138.48;71.38;;;;;;;;;;5114097;28;20494;-61
2021/03/03 06:49:49;;;;;;;131.15;68.93;;;;;;;;;;5114206;28;20058;-61
2021/03/03 06:52:15;;;;;;;156.60;67.03;;;;;;;;;;5114179;28;20455;-61
2021/03/03 06:54:40;;;;;;;156.35;66.13;;;;;;;;;;5114334;28;20054;-61
2021/03/03 06:57:12;;;;;;;145.15;65.07;;;;;;;;;;5112833;28;20031;-61
2021/03/03 06:59:42;;;;;;;129.98;63.72;;;;;;;;;;5114037;28;20039;-61
2021/03/03 07:02:11;;;;;;;121.95;62.28;;;;;;;;;;5112852;28;20536;-61
2021/03/03 07:04:41;;;;;;;146.23;74.28;;;;;;;;;;5114109;28;20051;-61
2021/03/03 07:07:13;;;;;;;157.75;79.47;;;;;;;;;;5113952;28;20032;-61
2021/03/03 07:09:41;;;;;;;135.75;71.88;;;;;;;;;;5114078;28;20150;-61
2021/03/03 07:12:08;;;;;;;117.60;62.20;;;;;;;;;;5114103;28;20020;-61
2021/03/03 07:14:33;;;;;;;117.70;59.70;;;;;;;;;;5114224;28;20038;-61
2021/03/03 07:17:06;;;;;;;115.65;58.58;;;;;;;;;;5114080;28;20019;-61
2021/03/03 07:19:32;;;;;;;133.70;64.00;;;;;;;;;;5113324;28;20044;-61
2021/03/03 07:21:58;;;;;;;161.27;75.25;;;;;;;;;;5114102;28;20379;-61
2021/03/03 07:24:24;;;;;;;176.25;78.18;;;;;;;;;;5114045;28;20019;-61
2021/03/03 07:26:49;;;;;;;213.40;88.30;;;;;;;;;;5111248;28;20104;-61
2021/03/03 07:29:15;;;;;;;227.73;96.72;;;;;;;;;;5111751;28;20092;-62
2021/03/03 07:31:41;;;;;;;214.00;94.63;;;;;;;;;;5111410;28;20081;-62
2021/03/03 07:34:06;;;;;;;176.20;80.82;;;;;;;;;;5111055;28;20024;-62
2021/03/03 07:36:35;;;;;;;183.80;82.80;;;;;;;;;;5112948;28;20108;-62
2021/03/03 07:39:02;;;;;;;141.25;69.03;;;;;;;;;;5112707;28;20042;-62
2021/03/03 07:41:30;;;;;;;120.50;61.10;;;;;;;;;;5112518;28;20020;-62
2021/03/03 07:43:57;;;;;;;108.40;53.60;;;;;;;;;;5112598;28;20020;-62
2021/03/03 07:46:23;;;;;;;118.15;59.25;;;;;;;;;;5112676;28;20387;-62
2021/03/03 07:48:50;;;;;;;120.20;60.97;;;;;;;;;;5116478;28;20099;-62
2021/03/03 07:51:16;;;;;;;133.63;66.68;;;;;;;;;;5117456;28;20108;-62
2021/03/03 07:53:42;;;;;;;128.65;64.32;;;;;;;;;;5117384;28;20028;-62
2021/03/03 07:56:08;;;;;;;112.57;59.67;;;;;;;;;;5116054;28;20464;-62
2021/03/03 07:58:37;;;;;;;100.43;49.03;;;;;;;;;;5117135;28;20034;-62
2021/03/03 08:01:03;;;;;;;77.75;39.33;;;;;;;;;;5115971;28;20537;-63
2021/03/03 08:03:56;;;;;;;76.13;38.25;;;;;;;;;;5117159;28;20012;-61
2021/03/03 08:06:28;;;;;;;84.60;40.50;;;;;;;;;;5113003;28;20032;-62
2021/03/03 08:09:06;;;;;;;82.88;40.20;;;;;;;;;;5117189;28;20024;-62
2021/03/03 08:11:32;;;;;;;78.85;39.75;;;;;;;;;;5116981;28;20028;-62
2021/03/03 08:13:57;;;;;;;78.07;37.65;;;;;;;;;;5116943;28;20028;-62
2021/03/03 08:16:24;;;;;;;77.85;39.70;;;;;;;;;;5116910;28;20036;-62
2021/03/03 08:18:50;;;;;;;76.55;35.80;;;;;;;;;;5116464;28;20114;-62
2021/03/03 08:21:15;;;;;;;77.05;38.45;;;;;;;;;;5116925;28;20123;-62
2021/03/03 08:23:54;;;;;;;86.18;44.85;;;;;;;;;;5116841;28;20361;-62
2021/03/03 08:26:19;;;;;;;78.20;38.50;;;;;;;;;;5116576;28;20031;-62
2021/03/03 08:28:48;;;;;;;83.43;38.65;;;;;;;;;;5116626;28;20026;-62
2021/03/03 08:31:14;;;;;;;78.65;40.60;;;;;;;;;;5116468;28;20399;-62
2021/03/03 08:33:43;;;;;;;91.13;45.88;;;;;;;;;;5116906;28;20103;-63
2021/03/03 08:36:31;;;;;;;75.65;39.00;;;;;;;;;;5115737;28;20534;-62
2021/03/03 08:38:59;;;;;;;71.53;36.58;;;;;;;;;;5109108;28;20537;-62
2021/03/03 08:41:30;;;;;;;80.88;42.30;;;;;;;;;;5103151;28;20062;-63
2021/03/03 08:44:00;;;;;;;65.63;30.42;;;;;;;;;;5078141;28;20029;-63
2021/03/03 08:46:29;;;;;;;63.92;29.05;;;;;;;;;;5083548;28;20024;-62
2021/03/03 08:48:57;;;;;;;63.33;32.58;;;;;;;;;;5075188;28;20024;-62
2021/03/03 08:51:28;;;;;;;65.82;30.98;;;;;;;;;;5082761;28;20557;-62
2021/03/03 08:53:54;;;;;;;66.03;30.85;;;;;;;;;;5083450;28;20024;-62
2021/03/03 08:56:39;;;;;;;66.13;33.00;;;;;;;;;;5083282;28;20023;-63
2021/03/03 08:59:12;;;;;;;58.00;26.55;;;;;;;;;;5073464;28;20036;-62
2021/03/03 09:01:56;;;;;;;60.13;28.98;;;;;;;;;;5076077;28;20207;-63
2021/03/03 09:04:34;;;;;;;62.85;27.88;;;;;;;;;;5074760;28;20400;-63
2021/03/03 09:07:01;;;;;;;60.00;26.83;;;;;;;;;;5074365;28;20027;-63
2021/03/03 09:09:33;;;;;;;68.55;28.88;;;;;;;;;;5074470;28;20021;-63
2021/03/03 09:12:00;;;;;;;72.57;30.23;;;;;;;;;;5075643;28;20028;-63
2021/03/03 09:14:26;;;;;;;57.10;27.90;;;;;;;;;;5075593;28;20024;-63
2021/03/03 09:16:54;;;;;;;58.58;26.48;;;;;;;;;;5075642;28;20081;-63
2021/03/03 09:19:19;;;;;;;60.70;27.15;;;;;;;;;;5075151;28;20078;-62
2021/03/03 09:21:45;;;;;;;53.83;27.63;;;;;;;;;;5084099;28;20514;-62
2021/03/03 09:24:11;;;;;;;60.17;29.80;;;;;;;;;;5094110;28;20089;-62
2021/03/03 09:26:37;;;;;;;60.60;29.10;;;;;;;;;;5095392;28;20161;-62
2021/03/03 09:29:03;;;;;;;63.78;30.90;;;;;;;;;;5094075;28;20357;-62
2021/03/03 09:31:30;;;;;;;58.28;26.85;;;;;;;;;;5094029;28;20028;-62
2021/03/03 09:47:05;;;;;;;60.47;29.40;;;;;;;;;;4575265;27;17005169;-62
2021/03/03 09:49:38;;;;;;;61.85;30.90;;;;;;;;;;5152195;27;20272;-62
2021/03/03 09:56:06;;;;;;;61.60;24.48;;;;;;;;;;5152908;27;20139;-62
2021/03/03 10:02:40;;;;;;;55.05;24.63;;;;;;;;;;5088249;28;20023;-62
2021/03/03 10:05:24;;;;;;;61.55;26.95;;;;;;;;;;5151375;27;20186;-62
2021/03/03 10:08:01;;;;;;;57.80;26.33;;;;;;;;;;5150479;27;20042;-62
2021/03/03 10:10:28;;;;;;;52.55;25.25;;;;;;;;;;5151630;27;20027;-62
2021/03/03 10:12:53;;;;;;;53.88;25.25;;;;;;;;;;5151682;27;20022;-62
2021/03/03 10:15:28;;;;;;;51.30;26.33;;;;;;;;;;5151599;27;20023;-62
2021/03/03 10:17:55;;;;;;;56.88;26.75;;;;;;;;;;5151700;27;20023;-62
2021/03/03 10:20:26;;;;;;;50.25;23.35;;;;;;;;;;5151644;27;20381;-62
2021/03/03 10:22:52;;;;;;;46.72;25.67;;;;;;;;;;5150437;27;20031;-62
2021/03/03 10:25:26;;;;;;;49.25;24.95;;;;;;;;;;5151621;27;20019;-62
2021/03/03 10:27:59;;;;;;;48.83;22.38;;;;;;;;;;5151560;27;20023;-62
2021/03/03 10:30:25;;;;;;;47.80;23.83;;;;;;;;;;5151353;27;20018;-62
2021/03/03 10:32:53;;;;;;;53.95;24.50;;;;;;;;;;5150017;27;20018;-62
2021/03/03 10:35:19;;;;;;;43.13;20.35;;;;;;;;;;5151250;27;20041;-62
2021/03/03 10:37:45;;;;;;;51.05;23.77;;;;;;;;;;5151174;27;20077;-62
2021/03/03 10:40:11;;;;;;;44.47;23.02;;;;;;;;;;5151104;27;20484;-62
2021/03/03 10:42:36;;;;;;;44.78;22.50;;;;;;;;;;5151215;27;20022;-62
2021/03/03 10:45:02;;;;;;;42.08;22.02;;;;;;;;;;5150688;27;20035;-62
2021/03/03 10:47:45;;;;;;;47.22;20.00;;;;;;;;;;5150915;27;20039;-62
2021/03/03 10:50:12;;;;;;;38.30;18.92;;;;;;;;;;5151184;27;20487;-62
2021/03/03 10:52:38;;;;;;;31.40;16.33;;;;;;;;;;5150978;27;20026;-62
2021/03/03 10:55:22;;;;;;;39.85;19.48;;;;;;;;;;5150825;27;20388;-62
2021/03/03 10:58:19;;;;;;;31.58;17.02;;;;;;;;;;5139692;27;20023;-62
2021/03/03 11:00:53;;;;;;;27.20;14.60;;;;;;;;;;5119845;27;20062;-63
2021/03/03 11:03:19;;;;;;;22.98;13.13;;;;;;;;;;5137447;27;20023;-62
2021/03/03 11:05:48;;;;;;;28.92;14.07;;;;;;;;;;5137216;27;20015;-61
2021/03/03 11:08:14;;;;;;;27.13;15.23;;;;;;;;;;5137396;27;20078;-61
2021/03/03 11:10:39;;;;;;;20.92;12.40;;;;;;;;;;5137241;27;20479;-61
2021/03/03 11:13:05;;;;;;;30.75;15.15;;;;;;;;;;5137132;27;20030;-61
2021/03/03 11:15:30;;;;;;;36.08;18.40;;;;;;;;;;5136754;27;20389;-61
2021/03/03 11:17:56;;;;;;;30.30;14.75;;;;;;;;;;5136908;27;20111;-62
2021/03/03 11:20:22;;;;;;;33.42;14.38;;;;;;;;;;5136724;27;20091;-62
2021/03/03 11:22:47;;;;;;;33.53;15.02;;;;;;;;;;5135768;27;20444;-62
2021/03/03 11:25:13;;;;;;;24.83;14.30;;;;;;;;;;5136762;27;20051;-62
2021/03/03 11:27:39;;;;;;;24.65;13.00;;;;;;;;;;5135833;27;20038;-62
2021/03/03 11:30:04;;;;;;;31.55;15.73;;;;;;;;;;5136799;27;20068;-62
2021/03/03 11:32:30;;;;;;;30.73;14.27;;;;;;;;;;5135571;27;20023;-62
2021/03/03 11:34:56;;;;;;;31.35;15.13;;;;;;;;;;5136763;27;20023;-62
2021/03/03 11:37:21;;;;;;;32.30;15.25;;;;;;;;;;5135458;27;20038;-62
2021/03/03 11:39:47;;;;;;;36.30;18.05;;;;;;;;;;5136338;27;20035;-62
2021/03/03 11:42:12;;;;;;;46.10;20.02;;;;;;;;;;5136303;27;20027;-62
2021/03/03 11:44:38;;;;;;;51.45;24.85;;;;;;;;;;5136119;27;20054;-62
2021/03/03 11:47:03;;;;;;;46.60;20.25;;;;;;;;;;5135589;27;20040;-62
2021/03/03 11:59:30;;;;;;;27.27;12.85;;;;;;;;;;4896816;29;20044;-61
2021/03/03 12:01:59;;;;;;;25.48;12.35;;;;;;;;;;4897349;29;20048;-61
2021/03/03 12:04:37;;;;;;;28.25;12.80;;;;;;;;;;4881100;29;20143;-61
2021/03/03 12:07:08;;;;;;;27.25;12.52;;;;;;;;;;4866308;29;20052;-62
2021/03/03 12:10:16;;;;;;;20.08;10.85;;;;;;;;;;4833719;29;20034;-61
2021/03/03 12:13:00;;;;;;;24.52;11.75;;;;;;;;;;4822993;29;20038;-61
2021/03/03 12:15:43;;;;;;;27.55;13.25;;;;;;;;;;4822932;29;20057;-62
2021/03/03 12:18:38;;;;;;;21.70;10.70;;;;;;;;;;4823446;29;20732;-61
2021/03/03 12:21:08;;;;;;;24.25;11.50;;;;;;;;;;4775478;29;20048;-61
2021/03/03 12:23:33;;;;;;;21.65;10.68;;;;;;;;;;4768714;30;20631;-61
2021/03/03 12:25:59;;;;;;;23.50;10.70;;;;;;;;;;4768419;30;20056;-61
2021/03/03 12:28:25;;;;;;;25.90;12.77;;;;;;;;;;4772585;29;20134;-62
2021/03/03 12:30:50;;;;;;;22.08;11.73;;;;;;;;;;4819672;29;20134;-61
2021/03/03 12:33:16;;;;;;;27.73;12.73;;;;;;;;;;4875998;29;20468;-62
2021/03/03 12:35:44;;;;;;;26.52;12.20;;;;;;;;;;4933824;28;20891;-61
2021/03/03 12:38:09;;;;;;;21.73;10.52;;;;;;;;;;5012226;28;20040;-61
2021/03/03 12:40:35;;;;;;;21.23;10.75;;;;;;;;;;5012000;28;20125;-61
2021/03/03 12:43:01;;;;;;;23.20;11.60;;;;;;;;;;5012049;28;20439;-61
2021/03/03 12:45:26;;;;;;;22.40;11.52;;;;;;;;;;5011952;28;20041;-61
2021/03/03 12:47:51;;;;;;;23.48;11.93;;;;;;;;;;5099304;28;20051;-61
2021/03/03 12:50:18;;;;;;;24.25;12.20;;;;;;;;;;5114406;28;20385;-61
2021/03/03 12:52:44;;;;;;;22.27;11.40;;;;;;;;;;5114377;28;20363;-61
2021/03/03 12:55:10;;;;;;;27.60;11.93;;;;;;;;;;5114183;28;20061;-61
2021/03/03 12:57:36;;;;;;;29.17;12.57;;;;;;;;;;5114361;28;20019;-61
2021/03/03 13:00:02;;;;;;;23.55;11.32;;;;;;;;;;5114206;27;20035;-61
2021/03/03 13:02:27;;;;;;;27.80;13.70;;;;;;;;;;5112822;28;20024;-61
2021/03/03 13:04:53;;;;;;;25.80;13.70;;;;;;;;;;5114035;28;20519;-61
2021/03/03 13:07:18;;;;;;;29.05;12.90;;;;;;;;;;5113941;28;20011;-61
2021/03/03 13:09:44;;;;;;;21.58;10.95;;;;;;;;;;5114041;28;20047;-61
2021/03/03 13:12:09;;;;;;;19.48;11.50;;;;;;;;;;5113766;28;20098;-61
2021/03/03 13:14:35;;;;;;;22.63;11.50;;;;;;;;;;5113906;28;20024;-61
2021/03/03 13:17:02;;;;;;;23.17;11.45;;;;;;;;;;5113907;28;20016;-61
2021/03/03 13:19:29;;;;;;;20.95;12.40;;;;;;;;;;5113575;28;20080;-61
2021/03/03 13:21:54;;;;;;;21.52;10.85;;;;;;;;;;5113862;28;20015;-61
2021/03/03 13:24:22;;;;;;;19.85;11.68;;;;;;;;;;5113815;28;20073;-62
2021/03/03 13:26:47;;;;;;;14.90;9.30;;;;;;;;;;5113657;28;20012;-62
2021/03/03 13:29:14;;;;;;;17.05;9.35;;;;;;;;;;5113947;28;20028;-62
2021/03/03 13:31:40;;;;;;;19.30;9.18;;;;;;;;;;5113544;28;20020;-62
2021/03/03 13:34:05;;;;;;;20.85;8.93;;;;;;;;;;5113898;28;20397;-61
2021/03/03 13:36:31;;;;;;;18.55;8.73;;;;;;;;;;5113631;28;20023;-61
2021/03/03 13:38:56;;;;;;;15.45;8.50;;;;;;;;;;5113672;28;20418;-62
2021/03/03 13:41:22;;;;;;;15.40;8.88;;;;;;;;;;5113616;28;20027;-61
2021/03/03 13:43:47;;;;;;;17.92;8.80;;;;;;;;;;5113614;28;20050;-61
2021/03/03 13:46:13;;;;;;;17.23;8.38;;;;;;;;;;5112886;28;20020;-62
2021/03/03 13:48:38;;;;;;;15.55;7.97;;;;;;;;;;5113682;28;20032;-61
2021/03/03 13:51:04;;;;;;;14.25;8.32;;;;;;;;;;5113580;28;20397;-61
2021/03/03 13:53:29;;;;;;;17.10;7.95;;;;;;;;;;5113389;28;20046;-61
2021/03/03 13:55:55;;;;;;;15.45;8.05;;;;;;;;;;5113383;28;20015;-61
2021/03/03 13:58:20;;;;;;;15.98;8.05;;;;;;;;;;5113557;28;20035;-61
2021/03/03 14:00:47;;;;;;;13.20;7.18;;;;;;;;;;5113452;28;20027;-62
2021/03/03 14:03:16;;;;;;;13.35;6.10;;;;;;;;;;5113196;28;20034;-62
2021/03/03 14:05:42;;;;;;;12.07;6.93;;;;;;;;;;5113190;28;20024;-62
2021/03/03 14:08:07;;;;;;;10.85;6.75;;;;;;;;;;5113364;28;20499;-62
2021/03/03 14:10:33;;;;;;;13.52;7.10;;;;;;;;;;5113359;28;20022;-62
2021/03/03 14:12:58;;;;;;;12.48;7.03;;;;;;;;;;5113237;28;20355;-62
2021/03/03 14:15:24;;;;;;;10.30;6.72;;;;;;;;;;5113116;28;20023;-62
2021/03/03 14:17:49;;;;;;;12.05;7.00;;;;;;;;;;5111910;28;20122;-62
2021/03/03 14:20:15;;;;;;;12.20;6.88;;;;;;;;;;5113253;28;20019;-62
2021/03/03 14:46:22;;;;;;;7.70;5.03;;;;;;;;;;5144996;22;1438241;-62
2021/03/03 14:48:48;;;;;;;8.85;4.43;;;;;;;;;;5085880;28;20561;-62
2021/03/03 14:51:14;;;;;;;8.05;4.50;;;;;;;;;;5082408;28;20024;-62
2021/03/03 14:53:39;;;;;;;8.55;4.78;;;;;;;;;;5081206;28;20044;-62
2021/03/03 14:56:05;;;;;;;6.28;4.55;;;;;;;;;;5066257;28;20023;-62
2021/03/03 14:58:30;;;;;;;7.55;4.10;;;;;;;;;;5084315;28;20486;-62
2021/03/03 15:00:56;;;;;;;6.53;4.25;;;;;;;;;;5066897;28;20056;-62
2021/03/03 15:03:22;;;;;;;6.65;4.20;;;;;;;;;;5050410;28;20063;-62
2021/03/03 15:05:47;;;;;;;8.40;4.72;;;;;;;;;;5083407;28;20024;-62
2021/03/03 15:08:14;;;;;;;10.80;5.72;;;;;;;;;;5083644;28;20481;-62
2021/03/03 15:10:39;;;;;;;7.22;4.78;;;;;;;;;;5083712;28;20020;-63
2021/03/03 15:13:05;;;;;;;5.82;4.00;;;;;;;;;;5063448;28;20113;-63
2021/03/03 15:15:30;;;;;;;7.55;4.90;;;;;;;;;;5080383;28;20714;-63